sensor_id;sensor_type;location;lat;lon;timestamp;pressure;altitude;pressure_sealevel;temperature;humidity
51297;BME280;37380;45.186;9.792;2023-06-01T00:00:05;101149.28;;;20.90;98.36
51297;BME280;37380;45.186;9.792;2023-06-01T00:02:40;101197.97;;;21.15;99.15
51297;BME280;37380;45.186;9.792;2023-06-01T00:05:09;101205.91;;;21.33;98.05
51297;BME280;37380;45.186;9.792;2023-06-01T00:07:43;101121.84;;;20.82;98.52
51297;BME280;37380;45.186;9.792;2023-06-01T00:10:37;101181.13;;;21.14;97.87
51297;BME280;37380;45.186;9.792;2023-06-01T00:13:04;101221.00;;;21.19;99.02
51297;BME280;37380;45.186;9.792;2023-06-01T00:15:31;101190.88;;;21.14;98.46
51297;BME280;37380;45.186;9.792;2023-06-01T00:17:58;101206.81;;;21.14;99.18
51297;BME280;37380;45.186;9.792;2023-06-01T00:20:34;101216.56;;;21.22;98.61
51297;BME280;37380;45.186;9.792;2023-06-01T00:23:35;101148.38;;;20.71;99.60
51297;BME280;37380;45.186;9.792;2023-06-01T00:26:35;101180.25;;;21.05;99.17
51297;BME280;37380;45.186;9.792;2023-06-01T00:29:02;101181.16;;;20.93;99.50
51297;BME280;37380;45.186;9.792;2023-06-01T00:31:36;101209.47;;;21.24;98.01
51297;BME280;37380;45.186;9.792;2023-06-01T00:34:31;101124.50;;;20.72;98.90
51297;BME280;37380;45.186;9.792;2023-06-01T00:36:58;101159.03;;;20.80;99.87
51297;BME280;37380;45.186;9.792;2023-06-01T00:39:25;101166.97;;;20.94;98.84
51297;BME280;37380;45.186;9.792;2023-06-01T00:41:52;101199.75;;;21.00;99.88
51297;BME280;37380;45.186;9.792;2023-06-01T00:44:20;101188.22;;;20.97;99.73
51297;BME280;37380;45.186;9.792;2023-06-01T00:46:47;101194.44;;;21.00;99.72
51297;BME280;37380;45.186;9.792;2023-06-01T00:49:14;101190.00;;;20.98;100.00
51297;BME280;37380;45.186;9.792;2023-06-01T00:51:41;101164.34;;;20.80;100.00
51297;BME280;37380;45.186;9.792;2023-06-01T00:54:08;101187.34;;;20.81;100.00
51297;BME280;37380;45.186;9.792;2023-06-01T00:56:36;101192.66;;;20.84;100.00
51297;BME280;37380;45.186;9.792;2023-06-01T00:59:04;101141.28;;;20.45;100.00
51297;BME280;37380;45.186;9.792;2023-06-01T01:01:32;101192.66;;;20.81;100.00
51297;BME280;37380;45.186;9.792;2023-06-01T01:04:00;101166.97;;;20.62;100.00
51297;BME280;37380;45.186;9.792;2023-06-01T01:06:42;101207.69;;;20.82;100.00
51297;BME280;37380;45.186;9.792;2023-06-01T01:09:32;101199.75;;;20.93;100.00
51297;BME280;37380;45.186;9.792;2023-06-01T01:12:16;101197.09;;;20.96;100.00
51297;BME280;37380;45.186;9.792;2023-06-01T01:15:09;101195.31;;;20.83;100.00
51297;BME280;37380;45.186;9.792;2023-06-01T01:17:42;101197.09;;;20.77;100.00
51297;BME280;37380;45.186;9.792;2023-06-01T01:20:22;101197.97;;;20.64;100.00
51297;BME280;37380;45.186;9.792;2023-06-01T01:26:28;101193.53;;;20.58;100.00
51297;BME280;37380;45.186;9.792;2023-06-01T01:29:01;101196.09;;;20.45;100.00
51297;BME280;37380;45.186;9.792;2023-06-01T01:31:38;101193.44;;;20.32;100.00
51297;BME280;37380;45.186;9.792;2023-06-01T01:34:40;101139.41;;;19.98;100.00
51297;BME280;37380;45.186;9.792;2023-06-01T01:37:37;101158.94;;;20.28;100.00
51297;BME280;37380;45.186;9.792;2023-06-01T01:40:15;101151.91;;;20.45;100.00
51297;BME280;37380;45.186;9.792;2023-06-01T01:42:42;101141.25;;;20.36;100.00
51297;BME280;37380;45.186;9.792;2023-06-01T01:45:10;101177.53;;;20.43;100.00
51297;BME280;37380;45.186;9.792;2023-06-01T01:48:11;101115.59;;;20.13;100.00
51297;BME280;37380;45.186;9.792;2023-06-01T01:50:49;101180.19;;;20.31;100.00
51297;BME280;37380;45.186;9.792;2023-06-01T01:53:18;101089.84;;;19.76;100.00
51297;BME280;37380;45.186;9.792;2023-06-01T01:55:47;101163.34;;;20.21;100.00
51297;BME280;37380;45.186;9.792;2023-06-01T01:58:16;101134.03;;;19.80;100.00
51297;BME280;37380;45.186;9.792;2023-06-01T02:00:45;101105.63;;;19.57;100.00
51297;BME280;37380;45.186;9.792;2023-06-01T02:03:17;101165.91;;;19.98;100.00
51297;BME280;37380;45.186;9.792;2023-06-01T02:05:45;101167.75;;;20.11;100.00
51297;BME280;37380;45.186;9.792;2023-06-01T02:08:12;101113.69;;;19.74;100.00
51297;BME280;37380;45.186;9.792;2023-06-01T02:10:39;101137.56;;;19.70;100.00
51297;BME280;37380;45.186;9.792;2023-06-01T02:13:07;101162.28;;;19.75;100.00
51297;BME280;37380;45.186;9.792;2023-06-01T02:15:34;101116.13;;;19.30;100.00
51297;BME280;37380;45.186;9.792;2023-06-01T02:18:01;101140.78;;;19.21;100.00
51297;BME280;37380;45.186;9.792;2023-06-01T02:20:37;101140.75;;;19.15;100.00
51297;BME280;37380;45.186;9.792;2023-06-01T02:23:31;101137.94;;;18.89;100.00
51297;BME280;37380;45.186;9.792;2023-06-01T02:25:58;101139.66;;;18.84;100.00
51297;BME280;37380;45.186;9.792;2023-06-01T02:28:25;101159.09;;;18.90;100.00
51297;BME280;37380;45.186;9.792;2023-06-01T02:30:59;101172.25;;;18.76;100.00
51297;BME280;37380;45.186;9.792;2023-06-01T02:33:53;101149.28;;;18.75;100.00
51297;BME280;37380;45.186;9.792;2023-06-01T02:36:20;101094.25;;;18.39;100.00
51297;BME280;37380;45.186;9.792;2023-06-01T02:38:48;101128.72;;;18.45;100.00
51297;BME280;37380;45.186;9.792;2023-06-01T02:41:15;101133.31;;;18.65;100.00
51297;BME280;37380;45.186;9.792;2023-06-01T02:43:42;101147.19;;;18.44;100.00
51297;BME280;37380;45.186;9.792;2023-06-01T02:46:09;101159.66;;;18.54;100.00
51297;BME280;37380;45.186;9.792;2023-06-01T02:48:39;101157.81;;;18.45;100.00
51297;BME280;37380;45.186;9.792;2023-06-01T02:51:07;101086.81;;;17.98;100.00
51297;BME280;37380;45.186;9.792;2023-06-01T02:53:34;101132.84;;;18.19;100.00
51297;BME280;37380;45.186;9.792;2023-06-01T02:56:05;101147.31;;;18.54;100.00
51297;BME280;37380;45.186;9.792;2023-06-01T02:58:42;101170.47;;;18.78;100.00
51297;BME280;37380;45.186;9.792;2023-06-01T03:01:25;101103.09;;;18.43;100.00
51297;BME280;37380;45.186;9.792;2023-06-01T03:04:29;101119.16;;;18.64;100.00
51297;BME280;37380;45.186;9.792;2023-06-01T03:07:23;101166.97;;;18.76;100.00
51297;BME280;37380;45.186;9.792;2023-06-01T03:09:53;101116.47;;;18.61;100.00
51297;BME280;37380;45.186;9.792;2023-06-01T03:12:26;101156.47;;;18.89;100.00
51297;BME280;37380;45.186;9.792;2023-06-01T03:14:52;101101.50;;;18.63;100.00
51297;BME280;37380;45.186;9.792;2023-06-01T03:17:19;101158.31;;;19.02;100.00
51297;BME280;37380;45.186;9.792;2023-06-01T03:19:47;101142.25;;;18.77;100.00
51297;BME280;37380;45.186;9.792;2023-06-01T03:22:27;101156.47;;;18.89;100.00
51297;BME280;37380;45.186;9.792;2023-06-01T03:25:14;101153.16;;;19.20;100.00
51297;BME280;37380;45.186;9.792;2023-06-01T03:27:43;101118.41;;;18.77;100.00
51297;BME280;37380;45.186;9.792;2023-06-01T03:30:10;101135.38;;;19.04;100.00
51297;BME280;37380;45.186;9.792;2023-06-01T03:32:41;101098.13;;;18.76;100.00
51297;BME280;37380;45.186;9.792;2023-06-01T03:35:10;101161.97;;;19.21;100.00
51297;BME280;37380;45.186;9.792;2023-06-01T03:37:40;101144.25;;;19.11;100.00
51297;BME280;37380;45.186;9.792;2023-06-01T03:40:08;101165.63;;;19.43;100.00
51297;BME280;37380;45.186;9.792;2023-06-01T03:42:44;101163.97;;;19.59;100.00
51297;BME280;37380;45.186;9.792;2023-06-01T03:45:13;101129.44;;;19.40;100.00
51297;BME280;37380;45.186;9.792;2023-06-01T03:47:42;101168.38;;;19.60;100.00
51297;BME280;37380;45.186;9.792;2023-06-01T03:50:10;101117.84;;;19.25;100.00
51297;BME280;37380;45.186;9.792;2023-06-01T03:52:38;101171.13;;;19.71;100.00
51297;BME280;37380;45.186;9.792;2023-06-01T03:55:05;101147.84;;;19.20;100.00
51297;BME280;37380;45.186;9.792;2023-06-01T03:57:54;101162.13;;;19.45;100.00
51297;BME280;37380;45.186;9.792;2023-06-01T04:00:28;101135.59;;;19.38;100.00
51297;BME280;37380;45.186;9.792;2023-06-01T04:03:24;101110.78;;;19.20;100.00
51297;BME280;37380;45.186;9.792;2023-06-01T04:05:53;101171.06;;;19.61;100.00
51297;BME280;37380;45.186;9.792;2023-06-01T04:08:26;101158.63;;;19.51;100.00
51297;BME280;37380;45.186;9.792;2023-06-01T04:10:53;101168.56;;;19.92;100.00
51297;BME280;37380;45.186;9.792;2023-06-01T04:13:21;101134.09;;;19.98;100.00
51297;BME280;37380;45.186;9.792;2023-06-01T04:15:48;101135.94;;;20.25;100.00
51297;BME280;37380;45.186;9.792;2023-06-01T04:18:19;101096.13;;;20.25;100.00
51297;BME280;37380;45.186;9.792;2023-06-01T04:20:59;101141.28;;;20.91;100.00
51297;BME280;37380;45.186;9.792;2023-06-01T04:24:01;101165.19;;;21.14;100.00
51297;BME280;37380;45.186;9.792;2023-06-01T04:26:56;101160.78;;;21.15;100.00
51297;BME280;37380;45.186;9.792;2023-06-01T04:29:25;101124.47;;;21.09;100.00
51297;BME280;37380;45.186;9.792;2023-06-01T04:31:52;101135.03;;;21.29;100.00
51297;BME280;37380;45.186;9.792;2023-06-01T04:34:22;101020.91;;;20.86;100.00
51297;BME280;37380;45.186;9.792;2023-06-01T04:36:51;101151.63;;;22.02;100.00
51297;BME280;37380;45.186;9.792;2023-06-01T04:39:18;101145.47;;;21.93;100.00
51297;BME280;37380;45.186;9.792;2023-06-01T04:41:45;101143.47;;;22.38;100.00
51297;BME280;37380;45.186;9.792;2023-06-01T04:44:13;101149.41;;;23.64;100.00
51297;BME280;37380;45.186;9.792;2023-06-01T04:46:43;101165.69;;;23.39;100.00
51297;BME280;37380;45.186;9.792;2023-06-01T04:49:11;101151.47;;;23.37;100.00
51297;BME280;37380;45.186;9.792;2023-06-01T04:51:39;101163.91;;;23.38;100.00
51297;BME280;37380;45.186;9.792;2023-06-01T04:54:07;101151.50;;;23.36;100.00
51297;BME280;37380;45.186;9.792;2023-06-01T04:56:34;101131.25;;;23.18;100.00
51297;BME280;37380;45.186;9.792;2023-06-01T04:59:01;101097.25;;;23.40;100.00
51297;BME280;37380;45.186;9.792;2023-06-01T05:01:35;101150.00;;;23.89;100.00
51297;BME280;37380;45.186;9.792;2023-06-01T05:04:29;101106.34;;;23.94;100.00
51297;BME280;37380;45.186;9.792;2023-06-01T05:06:56;101117.75;;;24.04;97.04
51297;BME280;37380;45.186;9.792;2023-06-01T05:09:23;101141.00;;;25.11;89.59
51297;BME280;37380;45.186;9.792;2023-06-01T05:11:51;101107.38;;;24.97;90.17
51297;BME280;37380;45.186;9.792;2023-06-01T05:14:19;101106.31;;;25.52;84.42
51297;BME280;37380;45.186;9.792;2023-06-01T05:16:46;101163.16;;;25.64;83.82
51297;BME280;37380;45.186;9.792;2023-06-01T05:19:17;101148.56;;;25.37;80.22
51297;BME280;37380;45.186;9.792;2023-06-01T05:21:50;101159.72;;;26.02;75.32
51297;BME280;37380;45.186;9.792;2023-06-01T05:24:44;101131.19;;;26.00;73.70
51297;BME280;37380;45.186;9.792;2023-06-01T05:27:11;101146.16;;;27.20;68.89
51297;BME280;37380;45.186;9.792;2023-06-01T05:29:38;101138.75;;;26.60;68.96
51297;BME280;37380;45.186;9.792;2023-06-01T05:32:06;101174.91;;;26.02;71.85
51297;BME280;37380;45.186;9.792;2023-06-01T05:34:33;101143.03;;;25.89;71.63
51297;BME280;37380;45.186;9.792;2023-06-01T05:37:01;101142.28;;;25.81;76.21
51297;BME280;37380;45.186;9.792;2023-06-01T05:39:28;101139.13;;;26.80;70.25
51297;BME280;37380;45.186;9.792;2023-06-01T05:41:56;101167.63;;;27.84;66.68
51297;BME280;37380;45.186;9.792;2023-06-01T05:44:26;101142.06;;;28.29;63.55
51297;BME280;37380;45.186;9.792;2023-06-01T05:46:53;101153.84;;;27.95;64.60
51297;BME280;37380;45.186;9.792;2023-06-01T05:49:21;101153.41;;;27.48;66.20
51297;BME280;37380;45.186;9.792;2023-06-01T05:51:48;101134.19;;;27.63;67.53
51297;BME280;37380;45.186;9.792;2023-06-01T05:54:15;101162.31;;;28.69;61.51
51297;BME280;37380;45.186;9.792;2023-06-01T05:56:42;101173.50;;;29.34;60.93
51297;BME280;37380;45.186;9.792;2023-06-01T05:59:10;101151.44;;;27.54;68.46
51297;BME280;37380;45.186;9.792;2023-06-01T06:01:37;101153.00;;;28.79;61.42
51297;BME280;37380;45.186;9.792;2023-06-01T06:04:05;101174.03;;;28.38;64.33
51297;BME280;37380;45.186;9.792;2023-06-01T06:06:32;101175.97;;;28.62;62.11
51297;BME280;37380;45.186;9.792;2023-06-01T06:08:59;101170.91;;;26.96;68.31
51297;BME280;37380;45.186;9.792;2023-06-01T06:11:27;101118.72;;;26.75;71.61
51297;BME280;37380;45.186;9.792;2023-06-01T06:13:54;101084.28;;;27.87;64.34
51297;BME280;37380;45.186;9.792;2023-06-01T06:16:21;101164.00;;;27.85;67.00
51297;BME280;37380;45.186;9.792;2023-06-01T06:18:48;101155.34;;;27.43;67.39
51297;BME280;37380;45.186;9.792;2023-06-01T06:21:21;101105.34;;;26.73;68.17
51297;BME280;37380;45.186;9.792;2023-06-01T06:24:22;101162.09;;;26.91;68.27
51297;BME280;37380;45.186;9.792;2023-06-01T06:27:16;101155.09;;;26.09;73.81
51297;BME280;37380;45.186;9.792;2023-06-01T06:29:50;101164.03;;;27.84;62.75
51297;BME280;37380;45.186;9.792;2023-06-01T06:32:51;101147.06;;;28.69;58.71
51297;BME280;37380;45.186;9.792;2023-06-01T06:35:49;101148.97;;;29.19;55.99
51297;BME280;37380;45.186;9.792;2023-06-01T06:38:16;101179.66;;;27.69;64.14
51297;BME280;37380;45.186;9.792;2023-06-01T06:40:43;101136.31;;;28.41;59.97
51297;BME280;37380;45.186;9.792;2023-06-01T06:43:10;101169.09;;;28.80;59.53
51297;BME280;37380;45.186;9.792;2023-06-01T06:45:37;101164.28;;;30.14;53.36
51297;BME280;37380;45.186;9.792;2023-06-01T06:48:04;101130.66;;;29.53;56.18
51297;BME280;37380;45.186;9.792;2023-06-01T06:50:32;101103.88;;;30.41;56.11
51297;BME280;37380;45.186;9.792;2023-06-01T06:52:59;101132.69;;;30.83;51.10
51297;BME280;37380;45.186;9.792;2023-06-01T06:55:28;101108.59;;;30.13;51.41
51297;BME280;37380;45.186;9.792;2023-06-01T06:57:55;101151.94;;;29.60;54.46
51297;BME280;37380;45.186;9.792;2023-06-01T07:00:22;101105.59;;;29.26;61.25
51297;BME280;37380;45.186;9.792;2023-06-01T07:02:49;101154.19;;;29.95;59.37
51297;BME280;37380;45.186;9.792;2023-06-01T07:05:17;101172.25;;;31.05;50.71
51297;BME280;37380;45.186;9.792;2023-06-01T07:07:44;101165.44;;;30.96;54.32
51297;BME280;37380;45.186;9.792;2023-06-01T07:10:11;101163.75;;;32.68;46.58
51297;BME280;37380;45.186;9.792;2023-06-01T07:12:38;101170.84;;;32.16;43.39
51297;BME280;37380;45.186;9.792;2023-06-01T07:15:12;101172.03;;;31.90;45.58
51297;BME280;37380;45.186;9.792;2023-06-01T07:18:06;101160.28;;;31.72;44.99
51297;BME280;37380;45.186;9.792;2023-06-01T07:20:40;101132.19;;;29.84;58.34
51297;BME280;37380;45.186;9.792;2023-06-01T07:23:34;101185.56;;;31.90;48.88
51297;BME280;37380;45.186;9.792;2023-06-01T07:26:01;101192.88;;;32.63;43.09
51297;BME280;37380;45.186;9.792;2023-06-01T07:28:35;101193.69;;;33.87;39.85
51297;BME280;37380;45.186;9.792;2023-06-01T07:31:36;101183.56;;;33.40;38.57
51297;BME280;37380;45.186;9.792;2023-06-01T07:34:37;101128.22;;;33.28;36.88
51297;BME280;37380;45.186;9.792;2023-06-01T07:37:30;101167.63;;;34.00;37.10
51297;BME280;37380;45.186;9.792;2023-06-01T07:39:58;101175.00;;;32.04;40.15
51297;BME280;37380;45.186;9.792;2023-06-01T07:42:32;101157.19;;;30.35;44.14
51297;BME280;37380;45.186;9.792;2023-06-01T07:45:26;101166.63;;;29.99;47.00
51297;BME280;37380;45.186;9.792;2023-06-01T07:47:53;101112.84;;;30.42;46.44
51297;BME280;37380;45.186;9.792;2023-06-01T07:50:20;101138.63;;;30.04;48.17
51297;BME280;37380;45.186;9.792;2023-06-01T07:52:50;101171.47;;;31.44;45.48
51297;BME280;37380;45.186;9.792;2023-06-01T07:55:18;101176.16;;;31.79;46.07
51297;BME280;37380;45.186;9.792;2023-06-01T07:57:46;101120.47;;;31.75;41.57
51297;BME280;37380;45.186;9.792;2023-06-01T08:00:13;101092.75;;;31.12;46.52
51297;BME280;37380;45.186;9.792;2023-06-01T08:02:44;101178.19;;;31.74;40.45
51297;BME280;37380;45.186;9.792;2023-06-01T08:05:11;101149.28;;;30.95;45.66
51297;BME280;37380;45.186;9.792;2023-06-01T08:07:38;101171.47;;;31.44;45.56
51297;BME280;37380;45.186;9.792;2023-06-01T08:10:06;101161.91;;;30.94;47.42
51297;BME280;37380;45.186;9.792;2023-06-01T08:12:35;101156.44;;;31.96;44.63
51297;BME280;37380;45.186;9.792;2023-06-01T08:15:03;101170.44;;;32.42;41.86
51297;BME280;37380;45.186;9.792;2023-06-01T08:17:30;101146.31;;;32.20;42.81
51297;BME280;37380;45.186;9.792;2023-06-01T08:19:57;101092.06;;;31.48;43.48
51297;BME280;37380;45.186;9.792;2023-06-01T08:22:31;101115.09;;;32.13;46.84
51297;BME280;37380;45.186;9.792;2023-06-01T08:25:25;101136.19;;;30.85;42.33
51297;BME280;37380;45.186;9.792;2023-06-01T08:27:52;101158.66;;;29.96;45.94
51297;BME280;37380;45.186;9.792;2023-06-01T08:30:26;101165.69;;;30.24;48.27
51297;BME280;37380;45.186;9.792;2023-06-01T08:33:13;101159.47;;;30.66;43.39
51297;BME280;37380;45.186;9.792;2023-06-01T08:35:41;101140.81;;;31.24;46.38
51297;BME280;37380;45.186;9.792;2023-06-01T08:38:08;101110.59;;;30.96;47.38
51297;BME280;37380;45.186;9.792;2023-06-01T08:40:35;101072.97;;;31.90;43.96
51297;BME280;37380;45.186;9.792;2023-06-01T08:43:18;101108.50;;;31.62;39.96
51297;BME280;37380;45.186;9.792;2023-06-01T08:46:20;101121.44;;;30.52;41.62
51297;BME280;37380;45.186;9.792;2023-06-01T08:49:17;101086.34;;;30.31;43.38
51297;BME280;37380;45.186;9.792;2023-06-01T08:51:48;101140.84;;;29.92;43.57
51297;BME280;37380;45.186;9.792;2023-06-01T08:54:17;101112.66;;;28.52;47.16
51297;BME280;37380;45.186;9.792;2023-06-01T08:56:45;101135.03;;;27.96;49.23
51297;BME280;37380;45.186;9.792;2023-06-01T08:59:12;101126.44;;;28.41;48.89
51297;BME280;37380;45.186;9.792;2023-06-01T09:01:42;101134.06;;;27.99;50.02
51297;BME280;37380;45.186;9.792;2023-06-01T09:04:10;101148.31;;;28.29;50.72
51297;BME280;37380;45.186;9.792;2023-06-01T09:06:37;101147.50;;;27.99;50.92
51297;BME280;37380;45.186;9.792;2023-06-01T09:09:04;101128.41;;;27.77;52.11
51297;BME280;37380;45.186;9.792;2023-06-01T09:11:31;101098.50;;;27.91;50.71
51297;BME280;37380;45.186;9.792;2023-06-01T09:13:58;101110.31;;;27.54;50.54
51297;BME280;37380;45.186;9.792;2023-06-01T09:16:35;101131.44;;;28.26;48.66
51297;BME280;37380;45.186;9.792;2023-06-01T09:19:04;101057.66;;;27.50;49.25
51297;BME280;37380;45.186;9.792;2023-06-01T09:21:37;101075.47;;;26.89;51.29
51297;BME280;37380;45.186;9.792;2023-06-01T09:24:31;101134.94;;;28.28;47.72
51297;BME280;37380;45.186;9.792;2023-06-01T09:26:59;101132.44;;;28.51;46.74
51297;BME280;37380;45.186;9.792;2023-06-01T09:29:36;101078.84;;;27.89;47.78
51297;BME280;37380;45.186;9.792;2023-06-01T09:32:30;101077.19;;;26.57;50.19
51297;BME280;37380;45.186;9.792;2023-06-01T09:34:58;101113.50;;;28.26;54.13
51297;BME280;37380;45.186;9.792;2023-06-01T09:37:25;101092.72;;;28.03;48.08
51297;BME280;37380;45.186;9.792;2023-06-01T09:39:52;101107.41;;;27.62;51.74
51297;BME280;37380;45.186;9.792;2023-06-01T09:42:33;101052.19;;;27.83;48.29
51297;BME280;37380;45.186;9.792;2023-06-01T09:45:34;101108.97;;;28.81;46.40
51297;BME280;37380;45.186;9.792;2023-06-01T09:48:17;101107.50;;;27.59;48.33
51297;BME280;37380;45.186;9.792;2023-06-01T09:50:49;101006.47;;;26.27;50.14
51297;BME280;37380;45.186;9.792;2023-06-01T09:53:16;101090.72;;;27.50;48.71
51297;BME280;37380;45.186;9.792;2023-06-01T09:56:13;101084.47;;;27.20;48.92
51297;BME280;37380;45.186;9.792;2023-06-01T09:58:41;101072.44;;;27.63;48.30
51297;BME280;37380;45.186;9.792;2023-06-01T10:01:10;101069.25;;;26.86;50.55
51297;BME280;37380;45.186;9.792;2023-06-01T10:03:41;101097.91;;;26.49;49.25
51297;BME280;37380;45.186;9.792;2023-06-01T10:06:14;101063.38;;;25.99;48.75
51297;BME280;37380;45.186;9.792;2023-06-01T10:08:42;101038.03;;;25.75;53.84
51297;BME280;37380;45.186;9.792;2023-06-01T10:11:09;101051.00;;;26.99;50.08
51297;BME280;37380;45.186;9.792;2023-06-01T10:13:36;101016.31;;;28.38;54.09
51297;BME280;37380;45.186;9.792;2023-06-01T10:16:04;101060.72;;;29.97;47.23
51297;BME280;37380;45.186;9.792;2023-06-01T10:18:32;101049.28;;;30.77;45.67
51297;BME280;37380;45.186;9.792;2023-06-01T10:21:07;101063.16;;;30.90;44.75
51297;BME280;37380;45.186;9.792;2023-06-01T10:24:07;101080.59;;;31.62;40.55
51297;BME280;37380;45.186;9.792;2023-06-01T10:27:06;101022.28;;;30.79;42.41
51297;BME280;37380;45.186;9.792;2023-06-01T10:29:43;101055.59;;;30.35;40.22
51297;BME280;37380;45.186;9.792;2023-06-01T10:35:05;101064.09;;;29.33;42.01
51297;BME280;37380;45.186;9.792;2023-06-01T10:37:33;101083.81;;;28.84;42.15
51297;BME280;37380;45.186;9.792;2023-06-01T10:42:41;101038.41;;;29.25;43.15
51297;BME280;37380;45.186;9.792;2023-06-01T10:48:09;101064.31;;;29.27;42.61
51297;BME280;37380;45.186;9.792;2023-06-01T10:51:39;101043.66;;;29.51;42.76
51297;BME280;37380;45.186;9.792;2023-06-01T10:54:28;101022.34;;;29.45;42.61
51297;BME280;37380;45.186;9.792;2023-06-01T10:57:25;101077.00;;;29.94;44.91
51297;BME280;37380;45.186;9.792;2023-06-01T11:02:45;101050.91;;;29.96;44.89
51297;BME280;37380;45.186;9.792;2023-06-01T11:05:33;101062.00;;;30.33;42.57
51297;BME280;37380;45.186;9.792;2023-06-01T11:08:00;101028.06;;;30.70;42.42
51297;BME280;37380;45.186;9.792;2023-06-01T11:13:20;101060.16;;;31.94;40.13
51297;BME280;37380;45.186;9.792;2023-06-01T11:18:44;101053.47;;;31.25;42.71
51297;BME280;37380;45.186;9.792;2023-06-01T11:21:21;101030.38;;;31.18;40.15
51297;BME280;37380;45.186;9.792;2023-06-01T11:24:23;101026.84;;;30.97;40.98
51297;BME280;37380;45.186;9.792;2023-06-01T11:27:22;101048.31;;;29.71;39.04
51297;BME280;37380;45.186;9.792;2023-06-01T11:29:57;101013.81;;;28.34;41.65
51297;BME280;37380;45.186;9.792;2023-06-01T11:32:51;101035.78;;;30.14;41.70
51297;BME280;37380;45.186;9.792;2023-06-01T11:35:21;100990.66;;;30.82;41.45
51297;BME280;37380;45.186;9.792;2023-06-01T11:37:53;100993.84;;;31.87;41.70
51297;BME280;37380;45.186;9.792;2023-06-01T11:40:21;101022.63;;;31.50;37.70
51297;BME280;37380;45.186;9.792;2023-06-01T11:42:54;101042.25;;;32.10;40.60
51297;BME280;37380;45.186;9.792;2023-06-01T11:46:00;101002.22;;;32.71;40.19
51297;BME280;37380;45.186;9.792;2023-06-01T11:49:17;101031.34;;;32.83;34.92
51297;BME280;37380;45.186;9.792;2023-06-01T11:52:17;101017.75;;;33.18;35.57
51297;BME280;37380;45.186;9.792;2023-06-01T11:54:53;101010.53;;;33.34;33.58
51297;BME280;37380;45.186;9.792;2023-06-01T11:57:42;100994.06;;;31.25;35.65
51297;BME280;37380;45.186;9.792;2023-06-01T12:00:10;101016.09;;;30.12;39.01
51297;BME280;37380;45.186;9.792;2023-06-01T12:02:41;101012.22;;;30.82;38.36
51297;BME280;37380;45.186;9.792;2023-06-01T12:05:10;100996.88;;;30.84;41.13
51297;BME280;37380;45.186;9.792;2023-06-01T12:07:46;101005.13;;;30.59;38.01
51297;BME280;37380;45.186;9.792;2023-06-01T12:10:16;100995.91;;;30.85;39.81
51297;BME280;37380;45.186;9.792;2023-06-01T12:12:51;101000.94;;;31.70;38.86
51297;BME280;37380;45.186;9.792;2023-06-01T12:15:51;100990.50;;;32.18;39.50
51297;BME280;37380;45.186;9.792;2023-06-01T12:18:29;100985.75;;;31.68;35.83
51297;BME280;37380;45.186;9.792;2023-06-01T12:21:11;100960.50;;;31.12;36.29
51297;BME280;37380;45.186;9.792;2023-06-01T12:24:12;100964.69;;;30.39;37.90
51297;BME280;37380;45.186;9.792;2023-06-01T12:27:17;100972.84;;;30.37;40.94
51297;BME280;37380;45.186;9.792;2023-06-01T12:29:48;100936.56;;;28.65;43.29
51297;BME280;37380;45.186;9.792;2023-06-01T12:32:18;100949.56;;;29.01;42.42
51297;BME280;37380;45.186;9.792;2023-06-01T12:35:03;100971.25;;;29.89;45.77
51297;BME280;37380;45.186;9.792;2023-06-01T12:37:30;100962.34;;;29.87;41.01
51297;BME280;37380;45.186;9.792;2023-06-01T12:40:05;100947.44;;;30.22;40.20
51297;BME280;37380;45.186;9.792;2023-06-01T12:43:19;100949.03;;;30.05;42.12
51297;BME280;37380;45.186;9.792;2023-06-01T12:46:19;100939.34;;;29.11;43.03
51297;BME280;37380;45.186;9.792;2023-06-01T12:48:54;100952.13;;;30.17;43.33
51297;BME280;37380;45.186;9.792;2023-06-01T12:51:54;100915.22;;;30.60;39.66
51297;BME280;37380;45.186;9.792;2023-06-01T12:54:56;100894.06;;;30.70;37.57
51297;BME280;37380;45.186;9.792;2023-06-01T12:57:55;100935.38;;;30.31;39.79
51297;BME280;37380;45.186;9.792;2023-06-01T13:00:22;100920.09;;;31.10;40.05
51297;BME280;37380;45.186;9.792;2023-06-01T13:03:01;100915.75;;;31.63;40.57
51297;BME280;37380;45.186;9.792;2023-06-01T13:05:28;100911.78;;;31.70;40.56
51297;BME280;37380;45.186;9.792;2023-06-01T13:07:55;100919.44;;;31.62;36.55
51297;BME280;37380;45.186;9.792;2023-06-01T13:10:22;100898.88;;;31.41;34.77
51297;BME280;37380;45.186;9.792;2023-06-01T13:12:55;100887.88;;;30.68;36.45
51297;BME280;37380;45.186;9.792;2023-06-01T13:15:50;100892.50;;;29.62;38.83
51297;BME280;37380;45.186;9.792;2023-06-01T13:18:18;100871.09;;;28.66;40.87
51297;BME280;37380;45.186;9.792;2023-06-01T13:20:51;100900.38;;;29.87;39.80
51297;BME280;37380;45.186;9.792;2023-06-01T13:23:45;100909.59;;;29.60;40.01
51297;BME280;37380;45.186;9.792;2023-06-01T13:26:12;100892.91;;;30.36;39.63
51297;BME280;37380;45.186;9.792;2023-06-01T13:28:47;100901.47;;;29.83;39.44
51297;BME280;37380;45.186;9.792;2023-06-01T13:31:54;100901.19;;;29.69;40.94
51297;BME280;37380;45.186;9.792;2023-06-01T13:35:15;100881.59;;;29.20;42.93
51297;BME280;37380;45.186;9.792;2023-06-01T13:37:42;100876.53;;;29.78;40.32
51297;BME280;37380;45.186;9.792;2023-06-01T13:40:09;100874.16;;;30.33;41.00
51297;BME280;37380;45.186;9.792;2023-06-01T13:42:42;100865.41;;;30.67;39.01
51297;BME280;37380;45.186;9.792;2023-06-01T13:46:02;100886.13;;;30.67;38.29
51297;BME280;37380;45.186;9.792;2023-06-01T13:48:42;100877.38;;;30.62;38.02
51297;BME280;37380;45.186;9.792;2023-06-01T13:51:42;100867.66;;;30.97;37.28